x

Lake Simcoe (45151) Wave Buoy

11:00pm - Fri 22nd Aug 2014 All times are CDT. -5 hours from GMT.

  • Sig Wave height 0.7ft
  • Peak Period 2s
  • Wind
    11mph, 13mph gusts
  • Sea Temp 69°f
  • Air Temp 68°f
  • Sea Pressure 1017.6mb
  • Lake Simcoe
  • Lake Simcoe

More Historic Weather Station data

Upgrade to MSW Pro to gain access to the past 30 days of data for over 8000 Wavebouys and Weather Stations around the globe.

Join Pro

Comparision Forecast

View Surf forecast
   
Fri 08/22 11:00pm 0.7ft 2s 11 13 mph 1017.6mb 69f 68f
10:00pm 0.7ft 2s 7 11 mph 1017.7mb 69f 68f
9:00pm 0.7ft 2s 13 16 mph 1017.4mb 70f 68f
8:00pm 0.7ft 2s 9 13 mph 1017.3mb 71f 69f
7:00pm  -  3s 9 11 mph 1016.4mb 71f 71f
6:00pm  -  3s 4 7 mph 1016mb 73f 72f
5:00pm  -  2s 2
mph
1015.9mb 73f 73f
4:00pm  -  2s 2
mph
1016mb 72f 71f
3:00pm  -  3s 2 4 mph 1015.9mb 71f 71f
2:00pm 0.3ft 2s 4
mph
1016.4mb 70f 69f
1:00pm  -  2s 4 7 mph 1016.6mb 70f 69f
12:00pm  -  2s 2 4 mph 1016.5mb 69f 69f
11:00am  -  2s 4
mph
1016.8mb 69f 67f
10:00am  -  2s 2 4 mph 1016.9mb 68f 66f
9:00am  -  2s  -  mph 1016.9mb 68f 66f
8:00am  -  2s 4
mph
1016.5mb 68f 65f
7:00am  -  2s 4 7 mph 1016.3mb 68f 65f
6:00am  -  2s 4
mph
1015.9mb 68f 65f
5:00am  -  2s 4 7 mph 1015.3mb 68f 64f
4:00am  -  3s 4
mph
1015.4mb 68f 64f
3:00am  -  4s 4 7 mph 1015.4mb 68f 65f
2:00am  -  2s 7 9 mph 1015.7mb 68f 65f
1:00am  -  3s 4 7 mph 1015.8mb 68f 65f
12:00am 0.3ft 2s 4 7 mph 1015.7mb 68f 65f
Thu 08/21 11:00pm 0.3ft 2s 7 9 mph 1015.6mb 68f 66f
10:00pm 0.3ft 2s 9 11 mph 1015.5mb 68f 66f
9:00pm 0.7ft 2s 9 11 mph 1015.4mb 69f 66f
8:00pm 0.7ft 2s 11 13 mph 1015.7mb 69f 66f
7:00pm 0.3ft 2s 13 16 mph 1014.8mb 69f 69f
6:00pm 0.3ft 3s 11 13 mph 1014.6mb 69f 72f
5:00pm 0.3ft 2s 11 13 mph 1014.4mb 70f 73f
4:00pm 0.3ft 2s 2 4 mph 1014.3mb 70f 72f
3:00pm  -  3s 4
mph
1014.4mb 69f 70f
2:00pm 0.3ft 3s 2 4 mph 1014.2mb 69f 70f
1:00pm 0.3ft 2s 9 13 mph 1014.6mb 69f 69f
12:00pm 0.3ft 2s 2 4 mph 1014.5mb 69f 70f
11:00am 0.3ft 2s 2
mph
1014.7mb 68f 69f
10:00am  -  2s 4 7 mph 1014.7mb 68f 67f
9:00am  -  2s 2 4 mph 1014.4mb 68f 67f
8:00am  -  3s 2 4 mph 1014.2mb 68f 67f
7:00am  -  2s 2 4 mph 1014.1mb 68f 67f
6:00am 0.3ft 2s 4 7 mph 1013.9mb 68f 67f
5:00am 0.3ft 2s 7
mph
1013.3mb 68f 67f
4:00am 0.7ft 2s 7 9 mph 1013.3mb 68f 67f
3:00am 0.7ft 2s 9 16 mph 1013.1mb 68f 67f
2:00am 0.7ft 2s 13 16 mph 1012.9mb 68f 67f
1:00am 0.7ft 3s 11 16 mph 1013.2mb 68f 68f
12:00am 1ft 3s 7 9 mph 1013.2mb 68f 67f
Wed 08/20 11:00pm 1ft 3s 11 13 mph 1013.4mb 68f 67f
10:00pm 1ft 2s 13
mph
1013mb 68f 68f
9:00pm 0.3ft 2s 11 16 mph 1012.7mb 68f 68f
8:00pm 0.7ft 2s 4 9 mph 1013.3mb 68f 69f
7:00pm 0.7ft 2s 4 7 mph 1013.2mb 68f 69f
6:00pm 0.7ft 2s 7
mph
1013.1mb 68f 70f
5:00pm 0.3ft 2s 9
mph
1012.6mb 69f 70f
4:00pm 0.3ft 2s 9 11 mph 1012.7mb 69f 71f
3:00pm 0.3ft 2s 7 9 mph 1012.3mb 68f 70f
2:00pm 0.3ft 2s 7
mph
1012.5mb 69f 70f
1:00pm 0.3ft 2s 7
mph
1012.5mb 68f 69f
12:00pm 0.7ft 2s 9
mph
1012.5mb 68f 67f
11:00am 0.7ft 2s 9 11 mph 1012.5mb 68f 65f
10:00am 0.3ft 2s 11 13 mph 1012.6mb 68f 64f
9:00am 0.3ft 2s 7 9 mph 1012.6mb 68f 64f
8:00am 0.7ft 2s 9
mph
1012.2mb 68f 63f
7:00am 0.7ft 2s 9 11 mph 1011.9mb 67f 63f
6:00am 0.7ft 2s 11 13 mph 1011.6mb 68f 63f
5:00am 0.7ft 2s 9 11 mph 1011.2mb 68f 63f
4:00am 0.7ft 2s 9 11 mph 1010.9mb 68f 64f
3:00am 0.3ft 2s 9 11 mph 1011.1mb 68f 64f
2:00am 0.7ft 2s 4 7 mph 1011.2mb 68f 65f
1:00am 1ft 3s 7 9 mph 1011.1mb 68f 66f
12:00am 1ft 3s 11 13 mph 1010.9mb 68f 66f
Tue 08/19 11:00pm 1ft 3s 11 16 mph 1010.7mb 68f 67f
10:00pm 1ft 2s 13 16 mph 1011mb 68f 67f
9:00pm 0.7ft 2s 11 13 mph 1011mb 68f 67f
8:00pm 0.7ft 2s 11 13 mph 1011.2mb 68f 69f
7:00pm 0.7ft 2s 9 11 mph 1011mb 69f 69f
6:00pm 0.7ft 2s 9 11 mph 1011mb 69f 70f
5:00pm 0.7ft 2s 11 13 mph 1010.8mb 69f 71f
4:00pm 0.3ft 2s 11 13 mph 1010.4mb 69f 71f
3:00pm  -  3s 9 11 mph 1011mb 69f 71f
2:00pm 0.3ft 2s 4
mph
1011.4mb 69f 70f
1:00pm 0.3ft 2s 4 7 mph 1011.8mb 69f 68f
12:00pm 0.3ft 2s 7
mph
1012.1mb 68f 67f
11:00am 0.7ft 2s 7 9 mph 1012.7mb 68f 66f
10:00am 0.7ft 2s 9
mph
1012.7mb 67f 65f
9:00am 0.7ft 2s 9 11 mph 1012.6mb 67f 63f
8:00am 0.7ft 2s 9 11 mph 1012.4mb 67f 62f
7:00am 0.7ft 2s 9 11 mph 1012.6mb 67f 62f
6:00am 0.7ft 2s 11 13 mph 1012.2mb 67f 61f